2nd June 2019 | Cork, Co Cork, Ireland

Irish Examiner Cork City Marathon (2019)

Relay: Female

Pos Name Team Name Gun Time Overall Pos Category (Pos)
1 Leevale Ladies (#6542) 02:53:18 10 All-Female (1)
2 Togher Women (#6503) 03:07:56 15 All-Female (2)
3 St. Finbarr's Ac Ladies (#6429) ST FINBARR'S AC 03:16:21 25 All-Female (3)
4 East Cork Ac Ladies (#6135) EAST CORK AC 03:19:06 30 All-Female (4)
5 Sharon & The Pacemakers (#6570) WEST WATERFORD AC 03:33:34 59 All-Female (5)
6 Wibbly Wobbly Wonders 5 (#6372) WIBBLY WOBBLY WONDERS 03:35:32 63 All-Female (6)
7 Mabbey Ballers (#6508) N/A 03:43:17 101 All-Female (7)
8 Tribe (#6412) 03:49:43 131 All-Female (8)
9 The Just Abouts! (#6111) 03:52:52 149 All-Female (9)
10 Sportsworld (#6497) SPORTSWORLD AC 03:56:01 166 All-Female (10)
11 Sole Sisters (#6650) 03:57:45 182 All-Female (11)
12 Douglas Meet & Train (#6209) DOUGLAS MEET & TRAIN 03:59:09 191 All-Female (12)
13 Mnß D·naraill (#6010) DONERAILE AC 03:59:21 193 All-Female (13)
14 Ciara O' Connor (#6584) 03:59:44 195 All-Female (14)
15 Happy Feet (#6558) 04:00:41 201 All-Female (15)
16 Sole Sisters (#6150) OTHER 04:00:52 203 All-Female (16)
17 Togher Toughies (#6418) TOGHER AC 04:01:32 206 All-Female (17)
18 The D Team (#6043) 04:01:48 207 All-Female (18)
19 Brady's Babes (#6428) NORTH CORK AC 04:02:08 209 All-Female (19)
20 Crosser Tri Girls (#6384) N/A 04:04:15 234 All-Female (20)
21 Carbery Crackers (#6425) 04:05:10 246 All-Female (21)
22 Mallow Ac Models (#6421) MALLOW AC 04:05:10 247 All-Female (22)
23 Daft Dolls (#6169) MALLOW AC 04:05:11 248 All-Female (23)
24 Mallow Moms (#6580) MALLOW AC 04:09:21 267 All-Female (24)
25 Run-Tastic Ladies (#6567) MALLOW AC 04:10:13 278 All-Female (25)
26 Legs Miserable (#6051) 04:10:27 281 All-Female (26)
27 Super Fit 5 (#6512) 04:10:59 285 All-Female (27)
28 The A Team (#6417) 04:11:29 289 All-Female (28)
29 Viva Le Vino (#6048) 04:11:31 290 All-Female (29)
30 Togher Twinkletoes (#6288) TOGHER FIT4LIFE 04:11:52 294 All-Female (30)
31 Glounthaune Ladies (#6013) 04:12:08 297 All-Female (31)
32 Feisty 5 (#6210) 04:13:45 312 All-Female (32)
33 All For Some Pizza!! (#6504) BALLYMORE COBH AC 04:15:06 318 All-Female (33)
34 Musgrave Hr 1 (#6106) N/A 04:15:18 321 All-Female (34)
35 Team Skehan (#6273) 04:16:24 333 All-Female (35)
36 Knockavilla School (#6014) 04:16:40 336 All-Female (36)
37 Red Hot Chilli Peppers (#6402) RIVERSTICK/KINSALE AC 04:17:07 341 All-Female (37)
38 Mloss (#6125) 04:17:24 342 All-Female (38)
39 The Movement Movers (#6555) 04:17:38 343 All-Female (39)
40 Couch To Relay (#6122) 04:17:52 345 All-Female (40)
41 Drr Great Pretenders (#6235) DROMAHANE ROAD RUNNERS AC 04:18:10 348 All-Female (41)
42 Mardyke Team 2 (#6440) UCC AC 04:19:37 363 All-Female (42)
43 The B Team (#6485) 04:21:29 375 All-Female (43)
44 The Sloggers (#6197) MALLOW AC 04:21:42 377 All-Female (44)
45 Maldron Shandon's Girls On The Run (#6120) 04:22:22 390 All-Female (45)
46 The Crash Carts (#6473) 04:22:39 392 All-Female (46)
47 No Name (#6585) 04:22:56 396 All-Female (47)
48 Definitely Up For This (#6275) 04:23:25 401 All-Female (48)
49 Ccoc Ladies In The City (#6355) 04:23:32 402 All-Female (49)
50 Last Min Again (#6416) 04:24:31 407 All-Female (50)